Map

Track Data

SID SEASON NUMBER BASIN SUBBASIN NAME ISO_TIME NATURE LAT LON WMO_WIND WMO_PRES WMO_AGENCY TRACK_TYPE DIST2LAND LANDFALL IFLAG USA_AGENCY USA_ATCF_ID USA_LAT USA_LON USA_RECORD USA_STATUS USA_WIND USA_PRES USA_SSHS USA_R34_NE USA_R34_SE USA_R34_SW USA_R34_NW USA_R50_NE USA_R50_SE USA_R50_SW USA_R50_NW USA_R64_NE USA_R64_SE USA_R64_SW USA_R64_NW USA_POCI USA_ROCI USA_RMW USA_EYE TOKYO_LAT TOKYO_LON TOKYO_GRADE TOKYO_WIND TOKYO_PRES TOKYO_R50_DIR TOKYO_R50_LONG TOKYO_R50_SHORT TOKYO_R30_DIR TOKYO_R30_LONG TOKYO_R30_SHORT TOKYO_LAND CMA_LAT CMA_LON CMA_CAT CMA_WIND CMA_PRES HKO_LAT HKO_LON HKO_CAT HKO_WIND HKO_PRES NEWDELHI_LAT NEWDELHI_LON NEWDELHI_GRADE NEWDELHI_WIND NEWDELHI_PRES NEWDELHI_CI NEWDELHI_DP NEWDELHI_POCI REUNION_LAT REUNION_LON REUNION_TYPE REUNION_WIND REUNION_PRES REUNION_TNUM REUNION_CI REUNION_RMW REUNION_R34_NE REUNION_R34_SE REUNION_R34_SW REUNION_R34_NW REUNION_R50_NE REUNION_R50_SE REUNION_R50_SW REUNION_R50_NW REUNION_R64_NE REUNION_R64_SE REUNION_R64_SW REUNION_R64_NW BOM_LAT BOM_LON BOM_TYPE BOM_WIND BOM_PRES BOM_TNUM BOM_CI BOM_RMW BOM_R34_NE BOM_R34_SE BOM_R34_SW BOM_R34_NW BOM_R50_NE BOM_R50_SE BOM_R50_SW BOM_R50_NW BOM_R64_NE BOM_R64_SE BOM_R64_SW BOM_R64_NW BOM_ROCI BOM_POCI BOM_EYE BOM_POS_METHOD BOM_PRES_METHOD NADI_LAT NADI_LON NADI_CAT NADI_WIND NADI_PRES WELLINGTON_LAT WELLINGTON_LON WELLINGTON_WIND WELLINGTON_PRES DS824_LAT DS824_LON DS824_STAGE DS824_WIND DS824_PRES TD9636_LAT TD9636_LON TD9636_STAGE TD9636_WIND TD9636_PRES TD9635_LAT TD9635_LON TD9635_WIND TD9635_PRES TD9635_ROCI NEUMANN_LAT NEUMANN_LON NEUMANN_CLASS NEUMANN_WIND NEUMANN_PRES MLC_LAT MLC_LON MLC_CLASS MLC_WIND MLC_PRES USA_GUST BOM_GUST BOM_GUST_PER REUNION_GUST REUNION_GUST_PER USA_SEAHGT USA_SEARAD_NE USA_SEARAD_SE USA_SEARAD_SW USA_SEARAD_NW STORM_SPEED STORM_DIR
1968208N18089 1968 48 NI BB NOT_NAMED 1968-07-25 18:00:00 TS 17.7000 88.6000 main 346 337 O________O____ jtwc_io IO041968 17.7000 88.6000 -1 17.7000 88.6000 TC 2 336
1968208N18089 1968 48 NI BB NOT_NAMED 1968-07-25 21:00:00 TS 17.7725 88.5625 main 337 322 P________P____ IO041968 17.7725 88.5625 -1 17.7725 88.5625 TC 2 333
1968208N18089 1968 48 NI BB NOT_NAMED 1968-07-26 00:00:00 TS 17.9000 88.5000 main 322 298 O________O____ jtwc_io IO041968 17.9000 88.5000 -1 17.9000 88.5000 TC 25 4 336
1968208N18089 1968 48 NI BB NOT_NAMED 1968-07-26 03:00:00 TS 18.1178 88.4001 main 298 268 P________PO___ IO041968 18.1200 88.4001 -1 18.1200 88.4001 TC 25 18.1000 88.4000 1 5 339
1968208N18089 1968 48 NI BB NOT_NAMED 1968-07-26 06:00:00 TS 18.4050 88.3010 main 268 238 O________OP___ jtwc_io IO041968 18.4000 88.3000 -1 18.4000 88.3000 TC 25 18.4251 88.3051 1 6 345
1968208N18089 1968 48 NI BB NOT_NAMED 1968-07-26 09:00:00 TS 18.7191 88.2358 main 238 214 P________PP___ IO041968 18.7150 88.2425 -1 18.7150 88.2425 TC 25 18.7301 88.2180 1 6 349
1968208N18089 1968 48 NI BB NOT_NAMED 1968-07-26 12:00:00 TS 18.9984 88.1823 main 214 191 O________OP___ jtwc_io IO041968 19.0000 88.2000 -1 19.0000 88.2000 TC 25 18.9950 88.1468 1 5 347
1968208N18089 1968 48 NI BB NOT_NAMED 1968-07-26 15:00:00 TS 19.1917 88.1283 main 191 184 P________PO___ IO041968 19.1875 88.1425 -1 19.1875 88.1425 TC 25 19.2000 88.1000 1 3 346
1968208N18089 1968 48 NI BB NOT_NAMED 1968-07-26 18:00:00 TS 19.3108 88.0941 main 184 177 O________OP___ jtwc_io IO041968 19.3000 88.1000 -1 19.3000 88.1000 TC 25 19.3325 88.0823 1 2 351
1968208N18089 1968 48 NI BB NOT_NAMED 1968-07-26 21:00:00 TS 19.3750 88.0899 main 177 177 P________PP___ IO041968 19.3575 88.0925 -1 19.3575 88.0925 TC 25 19.4100 88.0848 1 1 0
1968208N18089 1968 48 NI BB NOT_NAMED 1968-07-27 00:00:00 TS 19.4192 88.0983 main 177 171 O________OP___ jtwc_io IO041968 19.4000 88.1000 -1 19.4000 88.1000 TC 25 19.4575 88.0949 1 1 2
1968208N18089 1968 48 NI BB NOT_NAMED 1968-07-27 03:00:00 TS 19.5000 88.1050 main 171 165 P________PO___ IO041968 19.5000 88.1075 -1 19.5000 88.1075 TC 25 19.5000 88.1000 1 2 0
1968208N18089 1968 48 NI BB NOT_NAMED 1968-07-27 06:00:00 TS 19.5917 88.0927 main 165 165 O________OP___ jtwc_io IO041968 19.6000 88.1000 -1 19.6000 88.1000 TC 25 19.5750 88.0781 1 2 341
1968208N18089 1968 48 NI BB NOT_NAMED 1968-07-27 09:00:00 TS 19.6500 88.0500 main 160 151 P________PP___ IO041968 19.6500 88.0500 -1 19.6500 88.0500 TC 25 19.6500 88.0500 1 1 325
1968208N18089 1968 48 NI BB NOT_NAMED 1968-07-27 12:00:00 TS 19.7083 88.0073 main 151 144 O________OP___ jtwc_io IO041968 19.7000 88.0000 -1 19.7000 88.0000 TC 25 19.7250 88.0219 1 2 341
1968208N18089 1968 48 NI BB NOT_NAMED 1968-07-27 15:00:00 TS 19.8000 87.9900 main 144 137 P________PO___ IO041968 19.8000 87.9850 -1 19.8000 87.9850 TC 25 19.8000 88.0000 1 2 4
1968208N18089 1968 48 NI BB NOT_NAMED 1968-07-27 18:00:00 TS 19.8848 88.0232 main 137 137 O________OP___ jtwc_io IO041968 19.9000 88.0000 -1 19.9000 88.0000 TC 25 19.8543 88.0695 1 2 38
1968208N18089 1968 48 NI BB NOT_NAMED 1968-07-27 21:00:00 TS 19.9322 88.0980 main 145 138 P________PP___ IO041968 19.9425 88.0799 -1 19.9425 88.0799 TC 25 19.9117 88.1340 1 1 36
1968208N18089 1968 48 NI BB NOT_NAMED 1968-07-28 00:00:00 TS 19.9961 88.1106 main 138 123 O________OP___ jtwc_io IO041968 20.0000 88.1000 -1 20.0000 88.1000 TC 25 19.9883 88.1317 1 2 331
1968208N18089 1968 48 NI BB NOT_NAMED 1968-07-28 03:00:00 TS 20.1182 87.9882 main 123 85 P________PO___ IO041968 20.1273 87.9824 -1 20.1273 87.9824 TC 25 20.1000 88.0000 1 5 306
1968208N18089 1968 48 NI BB NOT_NAMED 1968-07-28 06:00:00 TS 20.2882 87.6900 main 85 38 O________OP___ jtwc_io IO041968 20.3000 87.7000 -1 20.3000 87.7000 TC 25 20.2646 87.6701 1 8 297
1968208N18089 1968 48 NI BB NOT_NAMED 1968-07-28 09:00:00 TS 20.4828 87.2377 main 30 0 P________PP___ IO041968 20.4926 87.2525 -1 20.4926 87.2525 TC 25 20.4632 87.2081 1 10 293
1968208N18089 1968 48 NI BB NOT_NAMED 1968-07-28 12:00:00 TS 20.6934 86.6889 main 0 0 O________OP___ jtwc_io IO041968 20.7000 86.7000 -1 20.7000 86.7000 TC 25 20.6801 86.6669 1 11 292
1968208N18089 1968 48 NI BB NOT_NAMED 1968-07-28 15:00:00 TS 20.8999 86.1383 main 0 0 P________PO___ IO041968 20.8999 86.1574 -1 20.8999 86.1574 TC 25 20.9000 86.1000 1 11 292
1968208N18089 1968 48 NI BB NOT_NAMED 1968-07-28 18:00:00 TS 21.0900 85.6121 main 0 0 O________OP___ jtwc_io IO041968 21.1000 85.6000 -1 21.1000 85.6000 TC 25 21.0701 85.6362 1 11 291
1968208N18089 1968 48 NI BB NOT_NAMED 1968-07-28 21:00:00 TS 21.2766 85.0888 main 0 0 P________PP___ IO041968 21.2922 85.0572 -1 21.2922 85.0572 TC 25 21.2452 85.1519 1 11 291
1968208N18089 1968 48 NI BB NOT_NAMED 1968-07-29 00:00:00 TS 21.4826 84.5389 main 0 0 O________OP___ jtwc_io IO041968 21.5000 84.5000 -1 21.5000 84.5000 TC 25 21.4477 84.6168 1 11 292
1968208N18089 1968 48 NI BB NOT_NAMED 1968-07-29 03:00:00 TS 21.7027 83.9775 main 0 0 P________PO___ IO041968 21.7041 83.9663 -1 21.7041 83.9663 TC 25 21.7000 84.0000 1 13 295
1968208N18089 1968 48 NI BB NOT_NAMED 1968-07-29 06:00:00 TS 22.0270 83.2533 main 0 0 O________OP___ jtwc_io IO041968 22.0000 83.3000 -1 22.0000 83.3000 TC 25 22.0809 83.1599 1 18 297
1968208N18089 1968 48 NI BB NOT_NAMED 1968-07-29 09:00:00 TS 22.5161 82.2702 main 0 0 P________PP___ IO041968 22.5241 82.2798 -1 22.5241 82.2798 TC 25 22.5001 82.2510 1 20 298
1968208N18089 1968 48 NI BB NOT_NAMED 1968-07-29 12:00:00 TS 22.9645 81.3303 main 0 0 O________OP___ jtwc_io IO041968 23.0000 81.3000 -1 23.0000 81.3000 TC 25 22.8936 81.3909 1 16 295
1968208N18089 1968 48 NI BB NOT_NAMED 1968-07-29 15:00:00 TS 23.1778 80.7092 main 0 0 P________PO___ IO041968 23.1666 80.7138 -1 23.1666 80.7138 TC 25 23.2000 80.7000 1 9 288
1968208N18089 1968 48 NI BB NOT_NAMED 1968-07-29 18:00:00 TS 23.2468 80.3879 main 0 0 O________OP___ jtwc_io IO041968 23.2000 80.4000 -1 23.2000 80.4000 TC 25 23.3404 80.3638 1 4 286
1968208N18089 1968 48 NI BB NOT_NAMED 1968-07-29 21:00:00 TS 23.3028 80.2480 main 0 0 P________PP___ IO041968 23.2572 80.2699 -1 23.2572 80.2699 TC 25 23.3939 80.2044 1 2 294
1968208N18089 1968 48 NI BB NOT_NAMED 1968-07-30 00:00:00 TS 23.3335 80.1726 main 0 0 O________OP___ jtwc_io IO041968 23.3000 80.2000 -1 23.3000 80.2000 TC 25 23.4006 80.1179 1 2 285
1968208N18089 1968 48 NI BB NOT_NAMED 1968-07-30 03:00:00 TS 23.3666 79.9917 main 0 0 P________PO___ IO041968 23.3500 79.9875 -1 23.3500 79.9875 TC 25 23.4000 80.0000 1 4 280
1968208N18089 1968 48 NI BB NOT_NAMED 1968-07-30 06:00:00 TS 23.4127 79.7014 main 0 0 O________OP___ jtwc_io IO041968 23.4000 79.7000 -1 23.4000 79.7000 TC 25 23.4380 79.7041 1 6 279
1968208N18089 1968 48 NI BB NOT_NAMED 1968-07-30 09:00:00 TS 23.4542 79.3681 main 0 0 P________PP___ IO041968 23.4425 79.3724 -1 23.4425 79.3724 TC 25 23.4777 79.3596 1 7 279
1968208N18089 1968 48 NI BB NOT_NAMED 1968-07-30 12:00:00 TS 23.5095 78.9951 main 0 0 O________OP___ jtwc_io IO041968 23.5000 79.0000 -1 23.5000 79.0000 TC 25 23.5285 78.9853 1 7 281
1968208N18089 1968 48 NI BB NOT_NAMED 1968-07-30 15:00:00 TS 23.5950 78.6000 main 0 0 P________PO___ IO041968 23.5925 78.6000 -1 23.5925 78.6000 TC 25 23.6000 78.6000 1 7 284
1968208N18089 1968 48 NI BB NOT_NAMED 1968-07-30 18:00:00 TS 23.6915 78.2146 main 0 0 O________OP___ jtwc_io IO041968 23.7000 78.2000 -1 23.7000 78.2000 TC 25 23.6746 78.2437 1 7 285
1968208N18089 1968 48 NI AS NOT_NAMED 1968-07-30 21:00:00 TS 23.7763 77.8594 main 0 0 P________PP___ IO041968 23.7773 77.8497 -1 23.7773 77.8497 TC 25 23.7744 77.8789 1 7 288
1968208N18089 1968 48 NI AS NOT_NAMED 1968-07-31 00:00:00 TS 23.9040 77.4999 main 0 0 O________OP___ jtwc_io IO041968 23.9000 77.5000 -1 23.9000 77.5000 TC 25 23.9120 77.4996 1 8 296
1968208N18089 1968 48 NI AS NOT_NAMED 1968-07-31 03:00:00 TS 24.1082 77.1149 main 0 0 P________PO___ IO041968 24.1123 77.1223 -1 24.1123 77.1223 TC 25 24.1000 77.1000 1 9 303
1968208N18089 1968 48 NI AS NOT_NAMED 1968-07-31 06:00:00 TS 24.3957 76.6668 main 0 0 O________OP___ jtwc_io IO041968 24.4000 76.7000 -1 24.4000 76.7000 TC 25 24.3872 76.6005 1 11 306
1968208N18089 1968 48 NI AS NOT_NAMED 1968-07-31 09:00:00 TS 24.7490 76.1538 main 0 0 P________PP___ IO041968 24.7652 76.1855 -1 24.7652 76.1855 TC 25 24.7164 76.0904 1 11 307
1968208N18089 1968 48 NI AS NOT_NAMED 1968-07-31 12:00:00 TS 25.0791 75.6783 main 0 0 O________OP___ jtwc_io IO041968 25.1000 75.7000 -1 25.1000 75.7000 TC 25 25.0372 75.6348 1 9 306
1968208N18089 1968 48 NI AS NOT_NAMED 1968-07-31 15:00:00 TS 25.2966 75.3115 main 0 0 P________PO___ IO041968 25.2949 75.3172 -1 25.2949 75.3172 TC 25 25.3000 75.3000 1 6 303
1968208N18089 1968 48 NI AS NOT_NAMED 1968-07-31 18:00:00 TS 25.4075 75.1137 main 0 0 O________OP___ jtwc_io IO041968 25.4000 75.1000 -1 25.4000 75.1000 TC 25 25.4225 75.1411 1 3 311
1968208N18089 1968 48 NI AS NOT_NAMED 1968-07-31 21:00:00 TS 25.4671 75.0971 main 0 0 P________PP___ IO041968 25.4574 75.0899 -1 25.4574 75.0899 TC 25 25.4864 75.1114 1 1 34
1968208N18089 1968 48 NI AS NOT_NAMED 1968-08-01 00:00:00 TS 25.5107 75.1920 main 0 0 O________OP___ jtwc_io IO041968 25.5000 75.2000 -1 25.5000 75.2000 TC 25 25.5322 75.1761 1 2 55
1968208N18089 1968 48 NI AS NOT_NAMED 1968-08-01 03:00:00 TS 25.5850 75.2851 main 0 0 P________PO___ IO041968 25.5775 75.2776 -1 25.5775 75.2776 TC 25 25.6000 75.3000 1 3 46
1968208N18089 1968 48 NI AS NOT_NAMED 1968-08-01 06:00:00 TS 25.7083 75.4212 main 0 0 O________OP___ jtwc_io IO041968 25.7000 75.4000 -1 25.7000 75.4000 TC 25 25.7208 75.4531 1 4 43
1968208N18089 1968 48 NI AS NOT_NAMED 1968-08-01 09:00:00 TS 25.8850 75.6004 main 0 0 P________PP___ IO041968 25.8826 75.5823 -1 25.8826 75.5823 TC 25 25.8881 75.6247 1 5 42
1968208N18089 1968 48 NI AS NOT_NAMED 1968-08-01 12:00:00 TS 26.0932 75.8045 main 0 0 O________OP___ jtwc_io IO041968 26.1000 75.8000 -1 26.1000 75.8000 TC 25 26.0864 75.8090 1 6 41
1968208N18089 1968 48 NI AS NOT_NAMED 1968-08-01 15:00:00 NR 26.3000 76.0000 main 0 __________O___ IO041968 -1 TC 26.3000 76.0000 1 5 40

About IBTrACS Database

This database is a web-friendly format of International Best Track Archive for Climate Stewardship (IBTrACS), a global best track data archive curated by NOAA dating back to 1842.

Updated: 2021-11-26